Mc Cook, Nebraska
Current Conditions -  °F | °C
As of 6:53 AM on Friday 28 Nov 2014 (Local Time) from KMCK Reporting Station
Clear Clear  
Wind Chill: 24°   Ceiling: Unl
Heat Index: 32°   Visibility: 10mi
Dew Point: 24°   Wind: 9mph
Humidity: 73%   Direction: 240°WSW
Pressure: 29.89"   Gusts: NA
Location:  40.1761°N, 100.646°W
Report Text: KMCK 281253Z AUTO 24008KT 10SM CLR 00/M04 A2989 RMK AO2 SLP134 T00001044 $
Loading
Personal Weather Stations






























Interactive Weather Map New forecast layout! Learn more

10-Day Weather Forecast

Advertisements
Track Severe Weather on mobile